createdAt,value
2018-07-01T00:01:28.000Z,26.7
2018-07-01T00:03:28.000Z,26.6
2018-07-01T00:07:29.000Z,26.3
2018-07-01T00:09:14.000Z,26.2
2018-07-01T00:11:14.000Z,26.3
2018-07-01T00:13:15.000Z,26.4
2018-07-01T00:14:15.000Z,26.4
2018-07-01T00:16:15.000Z,26.5
2018-07-01T00:17:15.000Z,26.5
2018-07-01T00:19:15.000Z,26.6
2018-07-01T00:21:15.000Z,26.6
2018-07-01T00:22:15.000Z,26.6
2018-07-01T00:23:15.000Z,26.7
2018-07-01T00:25:15.000Z,26.7
2018-07-01T00:27:15.000Z,26.6
2018-07-01T00:29:15.000Z,26.6
2018-07-01T00:30:15.000Z,26.6
2018-07-01T00:31:15.000Z,26.6
2018-07-01T00:33:15.000Z,26.6
2018-07-01T00:34:15.000Z,26.6
2018-07-01T00:35:15.000Z,26.7
2018-07-01T00:36:15.000Z,26.7
2018-07-01T00:38:15.000Z,26.7
2018-07-01T00:39:15.000Z,26.7
2018-07-01T00:41:15.000Z,26.6
2018-07-01T00:42:15.000Z,26.6
2018-07-01T00:44:15.000Z,26.5
2018-07-01T00:45:15.000Z,26.5
2018-07-01T00:47:15.000Z,26.5
2018-07-01T00:49:15.000Z,26.5
2018-07-01T00:50:15.000Z,26.5
2018-07-01T00:52:15.000Z,26.4
2018-07-01T00:53:15.000Z,26.4
2018-07-01T00:55:15.000Z,26.4
2018-07-01T00:57:15.000Z,26.4
2018-07-01T00:58:15.000Z,26.4
2018-07-01T01:00:15.000Z,26.4
2018-07-01T01:02:15.000Z,26.3
2018-07-01T01:03:15.000Z,26.3
2018-07-01T01:05:15.000Z,26.2
2018-07-01T01:07:15.000Z,26.2
2018-07-01T01:08:15.000Z,26.2
2018-07-01T01:10:15.000Z,26.1
2018-07-01T01:12:15.000Z,26
2018-07-01T01:14:15.000Z,26
2018-07-01T01:15:15.000Z,26
2018-07-01T01:17:15.000Z,26
2018-07-01T01:19:15.000Z,25.9
2018-07-01T01:20:15.000Z,25.9
2018-07-01T01:22:15.000Z,25.9
2018-07-01T01:24:15.000Z,25.9
2018-07-01T01:25:15.000Z,25.9
2018-07-01T01:26:15.000Z,25.9
2018-07-01T01:28:00.000Z,25.8
2018-07-01T01:29:15.000Z,25.8
2018-07-01T01:31:15.000Z,25.7
2018-07-01T01:33:15.000Z,25.7
2018-07-01T01:34:15.000Z,25.7
2018-07-01T01:35:15.000Z,25.7
2018-07-01T01:37:15.000Z,25.7
2018-07-01T01:39:15.000Z,25.7
2018-07-01T01:41:15.000Z,25.7
2018-07-01T01:43:15.000Z,25.7
2018-07-01T01:44:15.000Z,25.7
2018-07-01T01:45:15.000Z,25.7
2018-07-01T01:47:15.000Z,25.7
2018-07-01T01:49:15.000Z,25.7
2018-07-01T01:51:15.000Z,25.6
2018-07-01T01:53:15.000Z,25.6
2018-07-01T01:55:15.000Z,25.5
2018-07-01T01:57:15.000Z,25.4
2018-07-01T01:58:15.000Z,25.4
2018-07-01T02:00:15.000Z,25.4
2018-07-01T02:01:15.000Z,25.4
2018-07-01T02:02:15.000Z,25.5
2018-07-01T02:04:15.000Z,25.6
2018-07-01T02:05:15.000Z,25.6
2018-07-01T02:07:15.000Z,25.6
2018-07-01T02:09:00.000Z,25.6
2018-07-01T02:10:15.000Z,25.6
2018-07-01T02:12:15.000Z,25.5
2018-07-01T02:13:15.000Z,25.5
2018-07-01T02:14:15.000Z,25.5
2018-07-01T02:16:15.000Z,25.4
2018-07-01T02:18:15.000Z,25.3
2018-07-01T02:19:15.000Z,25.3
2018-07-01T02:20:15.000Z,25.4
2018-07-01T02:21:14.000Z,25.4
2018-07-01T02:22:14.000Z,25.5
2018-07-01T02:24:14.000Z,25.5
2018-07-01T02:25:14.000Z,25.5
2018-07-01T02:27:14.000Z,25.5
2018-07-01T02:28:14.000Z,25.5
2018-07-01T02:30:14.000Z,25.5
2018-07-01T02:32:14.000Z,25.4
2018-07-01T02:33:14.000Z,25.4
2018-07-01T02:35:14.000Z,25.4
2018-07-01T02:36:14.000Z,25.5
2018-07-01T02:37:14.000Z,25.5
2018-07-01T02:39:14.000Z,25.6
2018-07-01T02:41:14.000Z,25.5
2018-07-01T02:42:14.000Z,25.5
2018-07-01T02:44:14.000Z,25.5
2018-07-01T02:46:14.000Z,25.5
2018-07-01T02:48:14.000Z,25.5
2018-07-01T02:50:14.000Z,25.4
2018-07-01T02:51:14.000Z,25.4
2018-07-01T02:53:14.000Z,25.4
2018-07-01T02:54:14.000Z,25.4
2018-07-01T02:56:14.000Z,25.4
2018-07-01T02:58:14.000Z,25.5
2018-07-01T02:59:14.000Z,25.5
2018-07-01T03:00:14.000Z,25.4
2018-07-01T03:02:14.000Z,25.4
2018-07-01T03:04:14.000Z,25.4
2018-07-01T03:05:14.000Z,25.4
2018-07-01T03:07:14.000Z,25.4
2018-07-01T03:08:14.000Z,25.4
2018-07-01T03:10:14.000Z,25.4
2018-07-01T03:11:14.000Z,25.5
2018-07-01T03:13:14.000Z,25.4
2018-07-01T03:15:14.000Z,25.2
2018-07-01T03:16:14.000Z,25.1
2018-07-01T03:18:14.000Z,25.1
2018-07-01T03:19:14.000Z,25.1
2018-07-01T03:21:14.000Z,25.2
2018-07-01T03:22:14.000Z,25.2
2018-07-01T03:24:15.000Z,25.2
2018-07-01T03:25:15.000Z,25.2
2018-07-01T03:27:15.000Z,25.3
2018-07-01T03:29:15.000Z,25.2
2018-07-01T03:31:00.000Z,25.1
2018-07-01T03:32:15.000Z,25.1
2018-07-01T03:33:15.000Z,25.1
2018-07-01T03:34:15.000Z,25.1
2018-07-01T03:36:15.000Z,25.1
2018-07-01T03:37:15.000Z,25.1
2018-07-01T03:39:15.000Z,25.1
2018-07-01T03:40:15.000Z,25.1
2018-07-01T03:42:15.000Z,25.1
2018-07-01T03:43:15.000Z,25.1
2018-07-01T03:44:15.000Z,25.2
2018-07-01T03:45:15.000Z,25.3
2018-07-01T03:47:15.000Z,25.4
2018-07-01T03:48:15.000Z,25.4
2018-07-01T03:50:15.000Z,25.4
2018-07-01T03:52:15.000Z,25.3
2018-07-01T03:53:15.000Z,25.3
2018-07-01T03:54:15.000Z,25.2
2018-07-01T03:55:15.000Z,25.2
2018-07-01T03:57:15.000Z,25.2
2018-07-01T03:59:15.000Z,25.1
2018-07-01T04:00:15.000Z,25.1
2018-07-01T04:01:15.000Z,25.1
2018-07-01T04:03:15.000Z,25.2
2018-07-01T04:05:15.000Z,25.1
2018-07-01T04:07:15.000Z,25
2018-07-01T04:08:15.000Z,24.9
2018-07-01T04:10:15.000Z,24.9
2018-07-01T04:12:15.000Z,24.7
2018-07-01T04:14:15.000Z,24.6
2018-07-01T04:16:15.000Z,24.6
2018-07-01T04:18:15.000Z,24.6
2018-07-01T04:19:15.000Z,24.6
2018-07-01T04:20:15.000Z,24.7
2018-07-01T04:22:15.000Z,24.8
2018-07-01T04:23:15.000Z,24.8
2018-07-01T04:25:15.000Z,24.9
2018-07-01T04:26:15.000Z,24.9
2018-07-01T04:28:15.000Z,25
2018-07-01T04:30:15.000Z,24.9
2018-07-01T04:31:15.000Z,24.8
2018-07-01T04:33:15.000Z,24.8
2018-07-01T04:34:15.000Z,24.9
2018-07-01T04:35:15.000Z,24.9
2018-07-01T04:37:15.000Z,25
2018-07-01T04:39:15.000Z,24.9
2018-07-01T04:41:15.000Z,24.8
2018-07-01T04:43:15.000Z,24.7
2018-07-01T04:44:15.000Z,24.8
2018-07-01T04:45:15.000Z,24.8
2018-07-01T04:46:15.000Z,24.8
2018-07-01T04:48:15.000Z,24.9
2018-07-01T04:50:15.000Z,24.8
2018-07-01T04:51:15.000Z,24.8
2018-07-01T04:52:15.000Z,24.9
2018-07-01T04:54:15.000Z,25
2018-07-01T04:56:15.000Z,25
2018-07-01T04:57:15.000Z,25
2018-07-01T04:58:15.000Z,25.1
2018-07-01T05:00:15.000Z,25.1
2018-07-01T05:02:00.000Z,25.1
2018-07-01T05:03:15.000Z,25.1
2018-07-01T05:04:15.000Z,25.1
2018-07-01T05:06:15.000Z,25.1
2018-07-01T05:08:15.000Z,25
2018-07-01T05:09:15.000Z,25
2018-07-01T05:11:15.000Z,25
2018-07-01T05:12:15.000Z,25.1
2018-07-01T05:13:15.000Z,25.1
2018-07-01T05:14:15.000Z,25.3
2018-07-01T05:16:15.000Z,25.3
2018-07-01T05:17:15.000Z,25.3
2018-07-01T05:19:15.000Z,25.4
2018-07-01T05:21:15.000Z,25.3
2018-07-01T05:22:15.000Z,25.3
2018-07-01T05:23:15.000Z,25.4
2018-07-01T05:25:15.000Z,25.4
2018-07-01T05:26:15.000Z,25.5
2018-07-01T05:27:15.000Z,25.5
2018-07-01T05:29:15.000Z,25.5
2018-07-01T05:30:15.000Z,25.5
2018-07-01T05:32:14.000Z,25.6
2018-07-01T05:33:14.000Z,25.6
2018-07-01T05:34:14.000Z,25.6
2018-07-01T05:36:14.000Z,25.6
2018-07-01T05:38:14.000Z,25.6
2018-07-01T05:40:14.000Z,25.6
2018-07-01T05:41:14.000Z,25.6
2018-07-01T05:43:14.000Z,25.7
2018-07-01T05:45:14.000Z,25.7
2018-07-01T05:47:14.000Z,25.7
2018-07-01T05:48:59.000Z,25.7
2018-07-01T05:50:14.000Z,25.6
2018-07-01T05:52:14.000Z,25.6
2018-07-01T05:54:14.000Z,25.6
2018-07-01T05:55:14.000Z,25.6
2018-07-01T05:56:14.000Z,25.6
2018-07-01T05:57:14.000Z,25.7
2018-07-01T05:58:14.000Z,25.8
2018-07-01T05:59:14.000Z,25.9
2018-07-01T06:00:14.000Z,26
2018-07-01T06:02:14.000Z,26
2018-07-01T06:04:14.000Z,26
2018-07-01T06:06:14.000Z,26
2018-07-01T06:08:14.000Z,26
2018-07-01T06:09:14.000Z,26
2018-07-01T06:11:14.000Z,26
2018-07-01T06:13:14.000Z,26
2018-07-01T06:15:14.000Z,26.1
2018-07-01T06:17:14.000Z,26
2018-07-01T06:19:14.000Z,26
2018-07-01T06:21:14.000Z,26.1
2018-07-01T06:23:14.000Z,26.1
2018-07-01T06:24:14.000Z,26.1
2018-07-01T06:25:14.000Z,26.2
2018-07-01T06:26:14.000Z,26.3
2018-07-01T06:28:14.000Z,26.5
2018-07-01T06:30:14.000Z,26.5
2018-07-01T06:31:14.000Z,26.6
2018-07-01T06:32:14.000Z,26.6
2018-07-01T06:34:14.000Z,26.7
2018-07-01T06:36:14.000Z,26.6
2018-07-01T06:37:14.000Z,26.6
2018-07-01T06:39:14.000Z,26.6
2018-07-01T06:40:14.000Z,26.6
2018-07-01T06:41:14.000Z,26.7
2018-07-01T06:43:14.000Z,26.8
2018-07-01T06:44:14.000Z,26.9
2018-07-01T06:46:14.000Z,27
2018-07-01T06:47:14.000Z,27
2018-07-01T06:48:14.000Z,27.1
2018-07-01T06:49:14.000Z,27.1
2018-07-01T06:50:14.000Z,27.2
2018-07-01T06:52:14.000Z,27.2
2018-07-01T06:54:14.000Z,27.2
2018-07-01T06:56:14.000Z,27.2
2018-07-01T06:57:14.000Z,27.2
2018-07-01T06:59:14.000Z,27.2
2018-07-01T07:00:14.000Z,27.2
2018-07-01T07:02:14.000Z,27.2
2018-07-01T07:04:14.000Z,27.2
2018-07-01T07:05:14.000Z,27.2
2018-07-01T07:07:14.000Z,27.2
2018-07-01T07:09:14.000Z,27.2
2018-07-01T07:11:14.000Z,27.2
2018-07-01T07:13:14.000Z,27.2
2018-07-01T07:15:14.000Z,27.2
2018-07-01T07:16:14.000Z,27.3
2018-07-01T07:18:14.000Z,27.2
2018-07-01T07:20:14.000Z,27.3
2018-07-01T07:21:14.000Z,27.3
2018-07-01T07:22:14.000Z,27.4
2018-07-01T07:23:14.000Z,27.5
2018-07-01T07:25:14.000Z,27.7
2018-07-01T07:26:14.000Z,27.7
2018-07-01T07:27:14.000Z,27.8
2018-07-01T07:29:14.000Z,27.8
2018-07-01T07:31:14.000Z,27.8
2018-07-01T07:32:14.000Z,27.8
2018-07-01T07:34:14.000Z,27.8
2018-07-01T07:36:14.000Z,27.9
2018-07-01T07:37:14.000Z,27.9
2018-07-01T07:39:14.000Z,28
2018-07-01T07:41:14.000Z,28
2018-07-01T07:43:14.000Z,28
2018-07-01T07:44:14.000Z,28
2018-07-01T07:45:14.000Z,28.1
2018-07-01T07:46:14.000Z,28.1
2018-07-01T07:48:14.000Z,28.2
2018-07-01T07:49:14.000Z,28.3
2018-07-01T07:51:14.000Z,28.4
2018-07-01T07:52:14.000Z,28.4
2018-07-01T07:54:14.000Z,28.5
2018-07-01T07:56:14.000Z,28.5
2018-07-01T07:58:14.000Z,28.4
2018-07-01T08:00:14.000Z,28.3
2018-07-01T08:02:14.000Z,28.3
2018-07-01T08:03:14.000Z,28.3
2018-07-01T08:05:14.000Z,28.4
2018-07-01T08:07:14.000Z,28.5
2018-07-01T08:09:14.000Z,28.5
2018-07-01T08:10:14.000Z,28.5
2018-07-01T08:11:14.000Z,28.6
2018-07-01T08:12:59.000Z,28.7
2018-07-01T08:14:14.000Z,28.8
2018-07-01T08:15:14.000Z,28.8
2018-07-01T08:17:14.000Z,28.9
2018-07-01T08:19:14.000Z,28.9
2018-07-01T08:20:14.000Z,29
2018-07-01T08:21:14.000Z,29
2018-07-01T08:22:14.000Z,29.1
2018-07-01T08:23:14.000Z,29.2
2018-07-01T08:24:14.000Z,29.3
2018-07-01T08:26:14.000Z,29.4
2018-07-01T08:27:14.000Z,29.4
2018-07-01T08:28:14.000Z,29.5
2018-07-01T08:29:59.000Z,29.4
2018-07-01T08:31:14.000Z,29.3
2018-07-01T08:33:14.000Z,29.2
2018-07-01T08:34:59.000Z,29.2
2018-07-01T08:36:14.000Z,29.4
2018-07-01T08:38:14.000Z,30.3
2018-07-01T08:40:14.000Z,30.7
2018-07-01T08:41:14.000Z,30.6
2018-07-01T08:42:15.000Z,30.6
2018-07-01T08:44:15.000Z,31
2018-07-01T08:45:15.000Z,31.3
2018-07-01T08:46:15.000Z,31.5
2018-07-01T08:48:15.000Z,31.2
2018-07-01T08:50:15.000Z,30.6
2018-07-01T08:52:15.000Z,30.1
2018-07-01T08:53:15.000Z,29.9
2018-07-01T08:55:15.000Z,29.6
2018-07-01T08:57:15.000Z,29.3
2018-07-01T08:58:15.000Z,29.3
2018-07-01T09:00:15.000Z,29.1
2018-07-01T09:01:15.000Z,29
2018-07-01T09:03:15.000Z,29
2018-07-01T09:04:15.000Z,29
2018-07-01T09:06:15.000Z,28.9
2018-07-01T09:07:15.000Z,28.9
2018-07-01T09:09:15.000Z,28.9
2018-07-01T09:11:15.000Z,28.8
2018-07-01T09:13:15.000Z,28.7
2018-07-01T09:15:00.000Z,28.6
2018-07-01T09:16:15.000Z,28.6
2018-07-01T09:18:15.000Z,28.6
2018-07-01T09:20:15.000Z,28.6
2018-07-01T09:21:15.000Z,28.7
2018-07-01T09:23:15.000Z,28.7
2018-07-01T09:25:15.000Z,28.7
2018-07-01T09:27:15.000Z,28.6
2018-07-01T09:28:15.000Z,28.6
2018-07-01T09:29:15.000Z,28.7
2018-07-01T09:31:15.000Z,28.8
2018-07-01T09:32:15.000Z,28.8
2018-07-01T09:33:15.000Z,28.9
2018-07-01T09:34:15.000Z,29
2018-07-01T09:36:15.000Z,29
2018-07-01T09:37:15.000Z,29
2018-07-01T09:39:15.000Z,29.1
2018-07-01T09:41:15.000Z,28.9
2018-07-01T09:42:15.000Z,28.9
2018-07-01T09:43:15.000Z,28.9
2018-07-01T09:45:15.000Z,28.9
2018-07-01T09:47:14.000Z,28.9
2018-07-01T09:49:14.000Z,28.8
2018-07-01T09:50:14.000Z,28.9
2018-07-01T09:51:14.000Z,28.9
2018-07-01T09:52:14.000Z,29
2018-07-01T09:54:14.000Z,29
2018-07-01T09:55:14.000Z,29.1
2018-07-01T09:57:14.000Z,29.3
2018-07-01T09:58:14.000Z,29.3
2018-07-01T09:59:14.000Z,29.4
2018-07-01T10:00:14.000Z,29.5
2018-07-01T10:02:14.000Z,29.7
2018-07-01T10:03:59.000Z,29.8
2018-07-01T10:05:14.000Z,29.8
2018-07-01T10:07:14.000Z,29.7
2018-07-01T10:09:14.000Z,29.6
2018-07-01T10:10:14.000Z,29.6
2018-07-01T10:12:14.000Z,29.5
2018-07-01T10:13:14.000Z,29.5
2018-07-01T10:14:14.000Z,29.4
2018-07-01T10:16:14.000Z,29.4
2018-07-01T10:17:14.000Z,29.4
2018-07-01T10:18:14.000Z,29.4
2018-07-01T10:20:14.000Z,29.4
2018-07-01T10:22:14.000Z,29.4
2018-07-01T10:23:14.000Z,29.4
2018-07-01T10:25:14.000Z,29.4
2018-07-01T10:26:14.000Z,29.4
2018-07-01T10:27:14.000Z,29.4
2018-07-01T10:29:14.000Z,29.4
2018-07-01T10:31:14.000Z,29.4
2018-07-01T10:32:14.000Z,29.4
2018-07-01T10:34:14.000Z,29.4
2018-07-01T10:35:14.000Z,29.4
2018-07-01T10:39:15.000Z,29.1
2018-07-01T10:41:00.000Z,29
2018-07-01T10:43:00.000Z,29.1
2018-07-01T10:44:00.000Z,29.1
2018-07-01T10:46:00.000Z,29.2
2018-07-01T10:48:00.000Z,29.2
2018-07-01T10:50:01.000Z,29.1
2018-07-01T10:51:01.000Z,29.1
2018-07-01T10:53:01.000Z,29.1
2018-07-01T10:54:01.000Z,29.2
2018-07-01T10:55:01.000Z,29.2
2018-07-01T10:57:01.000Z,29.3
2018-07-01T10:59:01.000Z,29.4
2018-07-01T11:00:01.000Z,29.4
2018-07-01T11:01:01.000Z,29.5
2018-07-01T11:03:01.000Z,29.5
2018-07-01T11:05:01.000Z,29.5
2018-07-01T11:06:01.000Z,29.5
2018-07-01T11:08:01.000Z,29.5
2018-07-01T11:09:01.000Z,29.5
2018-07-01T11:11:01.000Z,29.5
2018-07-01T11:13:01.000Z,29.5
2018-07-01T11:15:01.000Z,29.5
2018-07-01T11:17:01.000Z,29.4
2018-07-01T11:18:01.000Z,29.5
2018-07-01T11:20:01.000Z,29.5
2018-07-01T11:21:01.000Z,29.5
2018-07-01T11:23:01.000Z,29.5
2018-07-01T11:25:01.000Z,29.5
2018-07-01T11:27:01.000Z,29.5
2018-07-01T11:29:01.000Z,29.6
2018-07-01T11:31:01.000Z,29.9
2018-07-01T11:32:01.000Z,30
2018-07-01T11:34:01.000Z,30.2
2018-07-01T11:35:01.000Z,30.3
2018-07-01T11:37:01.000Z,30.5
2018-07-01T11:38:01.000Z,30.6
2018-07-01T11:40:01.000Z,30.7
2018-07-01T11:41:01.000Z,30.8
2018-07-01T11:43:01.000Z,30.8
2018-07-01T11:45:01.000Z,30.6
2018-07-01T11:46:01.000Z,30.5
2018-07-01T11:48:01.000Z,30.4
2018-07-01T11:49:01.000Z,30.4
2018-07-01T11:51:01.000Z,30.4
2018-07-01T11:53:01.000Z,30.3
2018-07-01T11:54:01.000Z,30.3
2018-07-01T11:56:01.000Z,30.3
2018-07-01T11:58:01.000Z,30.2
2018-07-01T11:59:01.000Z,30.2
2018-07-01T12:01:01.000Z,30.2
2018-07-01T12:02:01.000Z,30.2
2018-07-01T12:04:01.000Z,30.2
2018-07-01T12:05:01.000Z,30.2
2018-07-01T12:07:01.000Z,30.2
2018-07-01T12:08:01.000Z,30.2
2018-07-01T12:10:01.000Z,30.2
2018-07-01T12:12:01.000Z,30.2
2018-07-01T12:13:01.000Z,30.1
2018-07-01T12:15:01.000Z,30.1
2018-07-01T12:16:01.000Z,30.1
2018-07-01T12:17:01.000Z,30.1
2018-07-01T12:18:01.000Z,30.2
2018-07-01T12:19:45.000Z,30.2
2018-07-01T12:21:01.000Z,30.2
2018-07-01T12:22:01.000Z,30.2
2018-07-01T12:23:01.000Z,30.3
2018-07-01T12:25:01.000Z,30.3
2018-07-01T12:27:01.000Z,30.2
2018-07-01T12:29:01.000Z,30.1
2018-07-01T12:31:01.000Z,30
2018-07-01T12:33:01.000Z,30
2018-07-01T12:35:01.000Z,29.9
2018-07-01T12:37:01.000Z,29.9
2018-07-01T12:39:01.000Z,29.9
2018-07-01T12:40:01.000Z,29.9
2018-07-01T12:41:01.000Z,29.9
2018-07-01T12:43:01.000Z,29.9
2018-07-01T12:45:01.000Z,29.9
2018-07-01T12:46:01.000Z,29.9
2018-07-01T12:48:01.000Z,30
2018-07-01T12:49:01.000Z,30
2018-07-01T12:50:01.000Z,30
2018-07-01T12:51:01.000Z,30.1
2018-07-01T12:52:01.000Z,30.1
2018-07-01T12:54:01.000Z,30.1
2018-07-01T12:56:01.000Z,30.1
2018-07-01T12:57:00.000Z,30.1
2018-07-01T12:58:00.000Z,30.1
2018-07-01T13:00:00.000Z,30
2018-07-01T13:02:00.000Z,29.9
2018-07-01T13:03:00.000Z,29.9
2018-07-01T13:05:00.000Z,30
2018-07-01T13:07:00.000Z,30
2018-07-01T13:09:00.000Z,30
2018-07-01T13:10:00.000Z,30.1
2018-07-01T13:11:00.000Z,30.1
2018-07-01T13:13:00.000Z,30
2018-07-01T13:14:00.000Z,30
2018-07-01T13:15:00.000Z,30
2018-07-01T13:16:00.000Z,30
2018-07-01T13:18:00.000Z,30.1
2018-07-01T13:19:00.000Z,30.1
2018-07-01T13:21:00.000Z,30.1
2018-07-01T13:22:00.000Z,30.2
2018-07-01T13:24:00.000Z,30.2
2018-07-01T13:26:00.000Z,30.2
2018-07-01T13:28:00.000Z,30.2
2018-07-01T13:29:00.000Z,30.2
2018-07-01T13:30:00.000Z,30.1
2018-07-01T13:32:00.000Z,30.1
2018-07-01T13:33:00.000Z,30.1
2018-07-01T13:35:00.000Z,30.2
2018-07-01T13:37:00.000Z,30.2
2018-07-01T13:39:00.000Z,30.3
2018-07-01T13:41:00.000Z,30.3
2018-07-01T13:42:00.000Z,30.4
2018-07-01T13:43:00.000Z,30.4
2018-07-01T13:44:00.000Z,30.5
2018-07-01T13:46:00.000Z,30.6
2018-07-01T13:48:00.000Z,30.6
2018-07-01T13:50:00.000Z,30.5
2018-07-01T13:51:00.000Z,30.5
2018-07-01T13:52:45.000Z,30.5
2018-07-01T13:54:00.000Z,30.4
2018-07-01T13:55:00.000Z,30.4
2018-07-01T13:56:45.000Z,30.5
2018-07-01T13:58:00.000Z,30.4
2018-07-01T13:59:00.000Z,30.4
2018-07-01T14:01:00.000Z,30.4
2018-07-01T14:03:00.000Z,30.4
2018-07-01T14:04:00.000Z,30.4
2018-07-01T14:06:00.000Z,30.4
2018-07-01T14:08:00.000Z,30.2
2018-07-01T14:09:00.000Z,30.2
2018-07-01T14:11:00.000Z,30.2
2018-07-01T14:13:00.000Z,30.2
2018-07-01T14:14:00.000Z,30.3
2018-07-01T14:15:00.000Z,30.3
2018-07-01T14:17:00.000Z,30.3
2018-07-01T14:18:00.000Z,30.3
2018-07-01T14:19:00.000Z,30.4
2018-07-01T14:21:00.000Z,30.4
2018-07-01T14:22:00.000Z,30.4
2018-07-01T14:24:00.000Z,30.3
2018-07-01T14:26:00.000Z,30.3
2018-07-01T14:28:00.000Z,30.3
2018-07-01T14:30:00.000Z,30.3
2018-07-01T14:32:00.000Z,30.3
2018-07-01T14:34:00.000Z,30.3
2018-07-01T14:35:00.000Z,30.3
2018-07-01T14:36:00.000Z,30.3
2018-07-01T14:37:00.000Z,30.4
2018-07-01T14:39:00.000Z,30.5
2018-07-01T14:40:00.000Z,30.5
2018-07-01T14:42:00.000Z,30.5
2018-07-01T14:43:00.000Z,30.5
2018-07-01T14:45:00.000Z,30.5
2018-07-01T14:46:00.000Z,30.5
2018-07-01T14:48:00.000Z,30.5
2018-07-01T14:50:00.000Z,30.5
2018-07-01T14:51:00.000Z,30.5
2018-07-01T14:53:00.000Z,30.5
2018-07-01T14:54:00.000Z,30.5
2018-07-01T14:55:45.000Z,30.5
2018-07-01T14:57:00.000Z,30.4
2018-07-01T14:58:00.000Z,30.4
2018-07-01T14:59:45.000Z,30.5
2018-07-01T15:01:00.000Z,30.4
2018-07-01T15:02:00.000Z,30.4
2018-07-01T15:03:00.000Z,30.5
2018-07-01T15:04:46.000Z,30.2
2018-07-01T15:07:01.000Z,30.4
2018-07-01T15:08:01.000Z,30.3
2018-07-01T15:10:01.000Z,30.3
2018-07-01T15:11:01.000Z,30.3
2018-07-01T15:13:01.000Z,30.3
2018-07-01T15:14:01.000Z,30.3
2018-07-01T15:15:01.000Z,30.3
2018-07-01T15:16:01.000Z,30.3
2018-07-01T15:18:01.000Z,30.4
2018-07-01T15:20:01.000Z,30.3
2018-07-01T15:21:01.000Z,30.3
2018-07-01T15:22:46.000Z,30.4
2018-07-01T15:24:01.000Z,30.4
2018-07-01T15:25:01.000Z,30.4
2018-07-01T15:26:01.000Z,30.5
2018-07-01T15:28:01.000Z,30.5
2018-07-01T15:30:01.000Z,30.4
2018-07-01T15:31:01.000Z,30.4
2018-07-01T15:33:01.000Z,30.4
2018-07-01T15:34:01.000Z,30.4
2018-07-01T15:36:01.000Z,30.4
2018-07-01T15:37:01.000Z,30.4
2018-07-01T15:38:01.000Z,30.5
2018-07-01T15:40:01.000Z,30.5
2018-07-01T15:41:01.000Z,30.5
2018-07-01T15:43:01.000Z,30.5
2018-07-01T15:45:01.000Z,30.5
2018-07-01T15:47:01.000Z,30.5
2018-07-01T15:49:01.000Z,30.4
2018-07-01T15:51:01.000Z,30.3
2018-07-01T15:52:01.000Z,30.3
2018-07-01T15:54:01.000Z,30.4
2018-07-01T15:56:01.000Z,30.3
2018-07-01T15:58:01.000Z,30.3
2018-07-01T15:59:01.000Z,30.3
2018-07-01T16:00:01.000Z,30.4
2018-07-01T16:01:46.000Z,30.5
2018-07-01T16:03:01.000Z,30.4
2018-07-01T16:04:01.000Z,30.4
2018-07-01T16:05:01.000Z,30.4
2018-07-01T16:07:01.000Z,30.5
2018-07-01T16:09:01.000Z,30.4
2018-07-01T16:11:01.000Z,30.4
2018-07-01T16:12:01.000Z,30.4
2018-07-01T16:14:01.000Z,30.4
2018-07-01T16:16:01.000Z,30.4
2018-07-01T16:17:01.000Z,30.4
2018-07-01T16:19:01.000Z,30.4
2018-07-01T16:21:01.000Z,30.3
2018-07-01T16:23:01.000Z,30.2
2018-07-01T16:24:01.000Z,30.2
2018-07-01T16:26:01.000Z,30.2
2018-07-01T16:28:01.000Z,30.2
2018-07-01T16:30:01.000Z,30.1
2018-07-01T16:32:01.000Z,30.1
2018-07-01T16:34:01.000Z,30.1
2018-07-01T16:39:02.000Z,29.6
2018-07-01T16:40:32.000Z,29.5
2018-07-01T16:41:32.000Z,29.6
2018-07-01T16:43:32.000Z,29.7
2018-07-01T16:45:32.000Z,29.8
2018-07-01T16:46:32.000Z,29.8
2018-07-01T16:48:32.000Z,29.9
2018-07-01T16:50:32.000Z,29.9
2018-07-01T16:51:32.000Z,30
2018-07-01T16:53:32.000Z,30.1
2018-07-01T16:55:17.000Z,30.2
2018-07-01T16:56:32.000Z,30.2
2018-07-01T16:57:32.000Z,30.2
2018-07-01T16:59:32.000Z,30.2
2018-07-01T17:01:32.000Z,30.3
2018-07-01T17:03:32.000Z,30.3
2018-07-01T17:05:32.000Z,30.3
2018-07-01T17:06:32.000Z,30.3
2018-07-01T17:08:32.000Z,30.3
2018-07-01T17:09:32.000Z,30.4
2018-07-01T17:10:32.000Z,30.4
2018-07-01T17:11:32.000Z,30.4
2018-07-01T17:13:32.000Z,30.5
2018-07-01T17:15:32.000Z,30.4
2018-07-01T17:16:32.000Z,30.4
2018-07-01T17:17:32.000Z,30.4
2018-07-01T17:18:32.000Z,30.4
2018-07-01T17:20:17.000Z,30.5
2018-07-01T17:21:32.000Z,30.4
2018-07-01T17:23:32.000Z,30.4
2018-07-01T17:25:17.000Z,30.4
2018-07-01T17:26:32.000Z,30.4
2018-07-01T17:28:32.000Z,30.4
2018-07-01T17:29:32.000Z,30.4
2018-07-01T17:31:32.000Z,30.4
2018-07-01T17:32:32.000Z,30.5
2018-07-01T17:34:32.000Z,30.5
2018-07-01T17:36:32.000Z,30.5
2018-07-01T17:37:32.000Z,30.5
2018-07-01T17:38:32.000Z,30.5
2018-07-01T17:40:32.000Z,30.6
2018-07-01T17:41:32.000Z,30.6
2018-07-01T17:43:32.000Z,30.6
2018-07-01T17:45:32.000Z,30.6
2018-07-01T17:46:32.000Z,30.5
2018-07-01T17:47:32.000Z,30.6
2018-07-01T17:49:32.000Z,30.5
2018-07-01T17:51:32.000Z,30.5
2018-07-01T17:53:32.000Z,30.4
2018-07-01T17:55:32.000Z,30.4
2018-07-01T17:57:32.000Z,30.3
2018-07-01T17:58:32.000Z,30.3
2018-07-01T18:00:32.000Z,30.4
2018-07-01T18:02:32.000Z,30.3
2018-07-01T18:04:32.000Z,30.3
2018-07-01T18:06:32.000Z,30.2
2018-07-01T18:07:32.000Z,30.2
2018-07-01T18:08:32.000Z,30.3
2018-07-01T18:10:32.000Z,30.3
2018-07-01T18:12:32.000Z,30.3
2018-07-01T18:13:32.000Z,30.3
2018-07-01T18:15:32.000Z,30.4
2018-07-01T18:16:32.000Z,30.4
2018-07-01T18:18:32.000Z,30.4
2018-07-01T18:20:32.000Z,30.3
2018-07-01T18:22:32.000Z,30.2
2018-07-01T18:23:32.000Z,30.1
2018-07-01T18:25:32.000Z,30.2
2018-07-01T18:26:32.000Z,30.2
2018-07-01T18:27:32.000Z,30.2
2018-07-01T18:29:32.000Z,30.3
2018-07-01T18:31:32.000Z,30.3
2018-07-01T18:32:32.000Z,30.3
2018-07-01T18:34:32.000Z,30.3
2018-07-01T18:36:32.000Z,30.2
2018-07-01T18:38:17.000Z,30.2
2018-07-01T18:39:32.000Z,30.1
2018-07-01T18:41:32.000Z,30.1
2018-07-01T18:43:32.000Z,30
2018-07-01T18:45:32.000Z,30
2018-07-01T18:46:32.000Z,30
2018-07-01T18:48:32.000Z,30
2018-07-01T18:49:32.000Z,30
2018-07-01T18:50:32.000Z,30.1
2018-07-01T18:52:32.000Z,30.1
2018-07-01T18:54:32.000Z,30
2018-07-01T18:55:32.000Z,30
2018-07-01T18:57:32.000Z,30.1
2018-07-01T18:59:32.000Z,30.1
2018-07-01T19:00:32.000Z,30.1
2018-07-01T19:02:32.000Z,30.1
2018-07-01T19:04:32.000Z,30
2018-07-01T19:06:32.000Z,30
2018-07-01T19:07:32.000Z,30
2018-07-01T19:08:32.000Z,30
2018-07-01T19:10:32.000Z,30
2018-07-01T19:11:32.000Z,30.1
2018-07-01T19:13:32.000Z,30.1
2018-07-01T19:14:32.000Z,30.1
2018-07-01T19:16:32.000Z,30
2018-07-01T19:18:32.000Z,30
2018-07-01T19:20:32.000Z,29.9
2018-07-01T19:21:32.000Z,29.8
2018-07-01T19:23:17.000Z,29.8
2018-07-01T19:24:32.000Z,29.8
2018-07-01T19:25:32.000Z,29.8
2018-07-01T19:27:32.000Z,29.8
2018-07-01T19:29:32.000Z,29.7
2018-07-01T19:30:32.000Z,29.7
2018-07-01T19:31:32.000Z,29.8
2018-07-01T19:33:32.000Z,29.8
2018-07-01T19:35:32.000Z,29.7
2018-07-01T19:37:32.000Z,29.5
2018-07-01T19:38:32.000Z,29.5
2018-07-01T19:39:32.000Z,29.5
2018-07-01T19:41:32.000Z,29.6
2018-07-01T19:42:32.000Z,29.5
2018-07-01T19:43:32.000Z,29.6
2018-07-01T19:45:32.000Z,29.6
2018-07-01T19:46:32.000Z,29.6
2018-07-01T19:48:32.000Z,29.6
2018-07-01T19:49:32.000Z,29.5
2018-07-01T19:51:32.000Z,29.5
2018-07-01T19:53:32.000Z,29.5
2018-07-01T19:55:32.000Z,29.3
2018-07-01T19:57:32.000Z,29.2
2018-07-01T19:59:32.000Z,29.1
2018-07-01T20:01:32.000Z,29
2018-07-01T20:02:32.000Z,29
2018-07-01T20:03:32.000Z,29
2018-07-01T20:05:32.000Z,29.1
2018-07-01T20:07:32.000Z,29.1
2018-07-01T20:09:32.000Z,29
2018-07-01T20:10:32.000Z,29
2018-07-01T20:12:32.000Z,29
2018-07-01T20:14:32.000Z,28.9
2018-07-01T20:18:32.000Z,28.3
2018-07-01T20:20:18.000Z,28.2
2018-07-01T20:22:18.000Z,28.3
2018-07-01T20:24:03.000Z,28.3
2018-07-01T20:25:18.000Z,28.3
2018-07-01T20:26:18.000Z,28.3
2018-07-01T20:28:03.000Z,28.4
2018-07-01T20:29:18.000Z,28.3
2018-07-01T20:30:18.000Z,28.3
2018-07-01T20:32:18.000Z,28.3
2018-07-01T20:34:18.000Z,28.2
2018-07-01T20:36:18.000Z,28.2
2018-07-01T20:37:18.000Z,28.2
2018-07-01T20:38:18.000Z,28.2
2018-07-01T20:39:18.000Z,28.2
2018-07-01T20:41:18.000Z,28.2
2018-07-01T20:42:18.000Z,28.2
2018-07-01T20:44:03.000Z,28.2
2018-07-01T20:45:18.000Z,28.2
2018-07-01T20:46:18.000Z,28.2
2018-07-01T20:48:18.000Z,28.1
2018-07-01T20:50:18.000Z,28
2018-07-01T20:51:18.000Z,28
2018-07-01T20:53:18.000Z,28
2018-07-01T20:55:18.000Z,27.9
2018-07-01T20:57:18.000Z,27.9
2018-07-01T20:59:18.000Z,27.8
2018-07-01T21:01:18.000Z,27.8
2018-07-01T21:02:18.000Z,27.8
2018-07-01T21:04:18.000Z,27.8